createdAt,value
2016-02-13T00:00:27.754Z,71.36
2016-02-13T00:01:27.678Z,70.88
2016-02-13T00:02:27.634Z,71.07
2016-02-13T00:03:27.590Z,70.98
2016-02-13T00:04:27.532Z,70.69
2016-02-13T00:05:27.471Z,71.07
2016-02-13T00:06:27.428Z,71.07
2016-02-13T00:07:27.367Z,70.88
2016-02-13T00:08:27.292Z,71.07
2016-02-13T00:09:27.233Z,70.88
2016-02-13T00:10:27.190Z,70.98
2016-02-13T00:11:27.177Z,71.64
2016-02-13T00:12:27.070Z,71.45
2016-02-13T00:13:27.026Z,71.45
2016-02-13T00:14:26.966Z,71.45
2016-02-13T00:15:26.922Z,71.73
2016-02-13T00:16:26.863Z,71.73
2016-02-13T00:17:26.818Z,71.73
2016-02-13T00:18:26.729Z,71.45
2016-02-13T00:19:26.700Z,71.83
2016-02-13T00:20:25.875Z,71.73
2016-02-13T00:21:26.565Z,70.69
2016-02-13T00:22:26.508Z,70.4
2016-02-13T00:23:26.479Z,69.93
2016-02-13T00:24:26.404Z,70.03
2016-02-13T00:25:26.344Z,69.84
2016-02-13T00:26:26.314Z,69.74
2016-02-13T00:27:26.242Z,70.21
2016-02-13T00:28:26.182Z,70.78
2016-02-13T00:29:26.122Z,70.31
2016-02-13T00:30:26.062Z,69.74
2016-02-13T00:31:26.018Z,69.74
2016-02-13T00:32:25.974Z,70.4
2016-02-13T00:33:25.898Z,70.5
2016-02-13T00:34:25.838Z,70.12
2016-02-13T00:35:25.779Z,69.93
2016-02-13T00:36:25.766Z,69.74
2016-02-13T00:37:25.676Z,68.79
2016-02-13T00:38:25.600Z,68.51
2016-02-13T00:39:25.557Z,68.7
2016-02-13T00:40:25.527Z,68.41
2016-02-13T00:41:25.452Z,68.79
2016-02-13T00:42:25.393Z,68.79
2016-02-13T00:43:25.333Z,68.51
2016-02-13T00:44:25.274Z,68.04
2016-02-13T00:45:25.230Z,67.27
2016-02-13T00:46:25.154Z,66.89
2016-02-13T00:47:25.110Z,67.18
2016-02-13T00:48:25.082Z,67.46
2016-02-13T00:49:25.005Z,67.94
2016-02-13T00:50:24.977Z,67.85
2016-02-13T00:51:24.918Z,67.65
2016-02-13T00:52:24.842Z,67.46
2016-02-13T00:53:24.783Z,67.18
2016-02-13T00:54:24.696Z,66.99
2016-02-13T00:55:24.667Z,66.71
2016-02-13T00:56:24.597Z,67.08
2016-02-13T00:57:24.584Z,66.8
2016-02-13T00:58:24.493Z,66.71
2016-02-13T00:59:24.433Z,67.08
2016-02-13T01:00:24.389Z,67.27
2016-02-13T01:01:24.314Z,67.37
2016-02-13T01:02:24.287Z,67.56
2016-02-13T01:03:24.228Z,67.85
2016-02-13T01:04:24.152Z,68.23
2016-02-13T01:05:24.108Z,67.94
2016-02-13T01:06:24.065Z,68.32
2016-02-13T01:07:24.020Z,68.6
2016-02-13T01:08:23.929Z,68.7
2016-02-13T01:09:23.900Z,68.6
2016-02-13T01:10:23.903Z,68.89
2016-02-13T01:11:23.812Z,69.27
2016-02-13T01:12:23.753Z,69.08
2016-02-13T01:13:23.647Z,69.08
2016-02-13T01:14:23.586Z,68.89
2016-02-13T01:15:23.541Z,69.08
2016-02-13T01:16:23.482Z,68.89
2016-02-13T01:17:23.438Z,69.46
2016-02-13T01:18:23.369Z,70.12
2016-02-13T01:19:23.341Z,70.03
2016-02-13T01:20:23.234Z,69.65
2016-02-13T01:21:23.189Z,69.93
2016-02-13T01:22:23.132Z,69.84
2016-02-13T01:23:23.072Z,69.74
2016-02-13T01:24:23.027Z,70.31
2016-02-13T01:25:22.968Z,70.03
2016-02-13T01:26:22.924Z,70.12
2016-02-13T01:27:22.848Z,69.93
2016-02-13T01:28:22.788Z,69.74
2016-02-13T01:29:22.744Z,69.65
2016-02-13T01:30:22.685Z,70.03
2016-02-13T01:31:22.610Z,69.93
2016-02-13T01:32:22.597Z,70.03
2016-02-13T01:33:22.537Z,69.65
2016-02-13T01:34:22.494Z,70.03
2016-02-13T01:35:22.402Z,69.65
2016-02-13T01:36:22.358Z,69.74
2016-02-13T01:37:22.297Z,70.59
2016-02-13T01:38:22.222Z,71.07
2016-02-13T01:39:22.195Z,70.78
2016-02-13T01:40:22.120Z,70.78
2016-02-13T01:41:22.091Z,70.5
2016-02-13T01:42:22.016Z,70.12
2016-02-13T01:43:21.956Z,69.84
2016-02-13T01:44:21.912Z,69.93
2016-02-13T01:45:21.837Z,70.31
2016-02-13T01:46:21.808Z,70.5
2016-02-13T01:47:21.747Z,71.17
2016-02-13T01:48:21.704Z,71.64
2016-02-13T01:49:21.629Z,72.21
2016-02-13T01:50:21.553Z,72.11
2016-02-13T01:51:21.525Z,73.07
2016-02-13T01:52:21.450Z,73.82
2016-02-13T01:53:21.405Z,73.54
2016-02-13T01:54:21.348Z,72.88
2016-02-13T01:55:21.304Z,72.4
2016-02-13T01:56:21.229Z,72.49
2016-02-13T01:57:21.170Z,73.44
2016-02-13T01:58:21.110Z,74.11
2016-02-13T01:59:21.066Z,74.3
2016-02-13T02:00:21.006Z,73.92
2016-02-13T02:01:20.962Z,74.2
2016-02-13T02:02:20.903Z,73.63
2016-02-13T02:03:20.843Z,73.82
2016-02-13T02:04:20.784Z,75.15
2016-02-13T02:05:20.756Z,75.24
2016-02-13T02:06:20.663Z,75.24
2016-02-13T02:07:20.603Z,75.62
2016-02-13T02:08:20.544Z,76.01
2016-02-13T02:09:20.514Z,75.72
2016-02-13T02:10:20.267Z,76.29
2016-02-13T02:11:20.379Z,76.1
2016-02-13T02:12:20.319Z,76.39
2016-02-13T02:13:20.274Z,77.05
2016-02-13T02:14:20.216Z,77.05
2016-02-13T02:15:20.155Z,77.52
2016-02-13T02:16:20.111Z,77.24
2016-02-13T02:17:20.052Z,77.24
2016-02-13T02:18:19.991Z,78.56
2016-02-13T02:19:19.932Z,78.75
2016-02-13T02:20:19.872Z,78.38
2016-02-13T02:21:19.843Z,77.71
2016-02-13T02:22:19.752Z,78.38
2016-02-13T02:23:19.710Z,78.85
2016-02-13T02:24:19.652Z,78.85
2016-02-13T02:25:19.591Z,78.85
2016-02-13T02:26:19.548Z,79.99
2016-02-13T02:27:19.505Z,80.14
2016-02-13T02:28:19.413Z,79.28
2016-02-13T02:29:19.353Z,79.47
2016-02-13T02:30:19.310Z,79.38
2016-02-13T02:31:19.265Z,79.38
2016-02-13T02:32:19.205Z,79.19
2016-02-13T02:33:19.146Z,79.76
2016-02-13T02:34:19.086Z,80.33
2016-02-13T02:35:19.026Z,80.37
2016-02-13T02:36:18.966Z,79.76
2016-02-13T02:37:18.907Z,80.08
2016-02-13T02:38:18.878Z,79
2016-02-13T02:39:18.802Z,79.1
2016-02-13T02:40:18.727Z,79.8
2016-02-13T02:41:18.714Z,80.04
2016-02-13T02:42:18.637Z,79.76
2016-02-13T02:43:18.581Z,80.04
2016-02-13T02:44:18.520Z,79.76
2016-02-13T02:45:18.477Z,79.76
2016-02-13T02:46:18.417Z,79.66
2016-02-13T02:47:18.357Z,80.04
2016-02-13T02:48:18.281Z,79
2016-02-13T02:49:18.253Z,78.53
2016-02-13T02:50:18.193Z,78.62
2016-02-13T02:51:18.118Z,78.53
2016-02-13T02:52:18.074Z,79.14
2016-02-13T02:53:18.014Z,79.47
2016-02-13T02:54:17.955Z,79.71
2016-02-13T02:55:17.897Z,80.08
2016-02-13T02:56:17.852Z,79.76
2016-02-13T02:57:17.793Z,79.76
2016-02-13T02:58:17.733Z,79.19
2016-02-13T02:59:17.674Z,79.1
2016-02-13T03:00:17.629Z,80.14
2016-02-13T03:01:17.555Z,79.28
2016-02-13T03:02:17.479Z,79.57
2016-02-13T03:03:17.451Z,78.72
2016-02-13T03:04:17.407Z,79.8
2016-02-13T03:05:17.347Z,79.95
2016-02-13T03:06:17.271Z,79.85
2016-02-13T03:07:17.227Z,79.57
2016-02-13T03:08:17.167Z,79.57
2016-02-13T03:09:17.125Z,79.19
2016-02-13T03:10:17.065Z,79.42
2016-02-13T03:11:17.005Z,78.75
2016-02-13T03:12:16.945Z,78.56
2016-02-13T03:13:16.885Z,78.81
2016-02-13T03:14:16.842Z,78.24
2016-02-13T03:15:16.768Z,78.15
2016-02-13T03:16:16.739Z,78.05
2016-02-13T03:17:16.648Z,77.39
2016-02-13T03:18:16.622Z,77.52
2016-02-13T03:19:16.546Z,77.71
2016-02-13T03:20:16.503Z,77.52
2016-02-13T03:21:16.434Z,77.14
2016-02-13T03:22:16.374Z,77.52
2016-02-13T03:23:16.314Z,77.39
2016-02-13T03:24:16.253Z,77.05
2016-02-13T03:25:16.210Z,77.14
2016-02-13T03:26:16.152Z,77.33
2016-02-13T03:27:16.093Z,77.14
2016-02-13T03:28:16.033Z,77.52
2016-02-13T03:29:15.973Z,77.14
2016-02-13T03:30:15.944Z,77.14
2016-02-13T03:31:15.870Z,76.76
2016-02-13T03:32:15.825Z,76.76
2016-02-13T03:33:15.750Z,76.92
2016-02-13T03:34:15.705Z,76.67
2016-02-13T03:35:15.646Z,76.29
2016-02-13T03:36:15.602Z,76.57
2016-02-13T03:37:15.527Z,76.39
2016-02-13T03:38:15.466Z,76.76
2016-02-13T03:39:15.407Z,76.57
2016-02-13T03:40:15.363Z,76.73
2016-02-13T03:41:15.335Z,76.39
2016-02-13T03:42:15.254Z,76.95
2016-02-13T03:43:15.167Z,76.67
2016-02-13T03:44:15.110Z,76.54
2016-02-13T03:45:15.038Z,76.95
2016-02-13T03:46:14.952Z,76.67
2016-02-13T03:47:14.900Z,76.86
2016-02-13T03:48:14.852Z,77.14
2016-02-13T03:49:14.788Z,77.05
2016-02-13T03:50:14.723Z,76.92
2016-02-13T03:51:14.660Z,76.95
2016-02-13T03:52:14.596Z,76.76
2016-02-13T03:53:14.551Z,77.24
2016-02-13T03:54:14.490Z,77.05
2016-02-13T03:55:14.428Z,77.2
2016-02-13T03:56:14.367Z,77.14
2016-02-13T03:57:14.305Z,77.33
2016-02-13T03:58:14.246Z,77.43
2016-02-13T03:59:14.186Z,77.05
2016-02-13T04:00:14.140Z,76.92
2016-02-13T04:01:14.095Z,77.33
2016-02-13T04:02:14.051Z,77.33
2016-02-13T04:03:13.960Z,77.52
2016-02-13T04:04:13.916Z,77.52
2016-02-13T04:05:13.857Z,77.33
2016-02-13T04:06:13.797Z,77.81
2016-02-13T04:07:13.775Z,77.52
2016-02-13T04:08:13.567Z,78.09
2016-02-13T04:09:18.305Z,78.38
2016-02-13T04:10:13.657Z,78.28
2016-02-13T04:11:13.550Z,78
2016-02-13T04:12:13.458Z,77.81
2016-02-13T04:13:13.415Z,78.19
2016-02-13T04:14:13.354Z,78.38
2016-02-13T04:15:13.295Z,78.19
2016-02-13T04:16:13.236Z,78.66
2016-02-13T04:17:13.191Z,79.38
2016-02-13T04:18:13.115Z,79.52
2016-02-13T04:19:13.076Z,78.85
2016-02-13T04:20:13.017Z,78.75
2016-02-13T04:21:12.988Z,78.56
2016-02-13T04:22:12.897Z,78.47
2016-02-13T04:23:12.868Z,78.38
2016-02-13T04:24:12.778Z,78.19
2016-02-13T04:25:12.718Z,78.28
2016-02-13T04:26:12.673Z,78.47
2016-02-13T04:27:12.614Z,78.09
2016-02-13T04:28:12.569Z,78.19
2016-02-13T04:29:12.492Z,78.47
2016-02-13T04:30:12.447Z,78.28
2016-02-13T04:31:12.387Z,78.56
2016-02-13T04:32:12.329Z,78.66
2016-02-13T04:33:12.285Z,78.66
2016-02-13T04:34:12.224Z,78.75
2016-02-13T04:35:12.165Z,78.75
2016-02-13T04:36:12.105Z,78.56
2016-02-13T04:37:12.045Z,78.95
2016-02-13T04:38:11.985Z,79.52
2016-02-13T04:39:11.927Z,78.95
2016-02-13T04:40:11.883Z,79.42
2016-02-13T04:41:11.823Z,79.71
2016-02-13T04:42:11.764Z,79.33
2016-02-13T04:43:11.705Z,79.33
2016-02-13T04:44:11.645Z,79.33
2016-02-13T04:45:11.600Z,79.14
2016-02-13T04:46:11.541Z,79.23
2016-02-13T04:47:11.480Z,79.33
2016-02-13T04:48:11.439Z,79.04
2016-02-13T04:49:11.379Z,79.61
2016-02-13T04:50:11.319Z,79.42
2016-02-13T04:51:11.276Z,79.8
2016-02-13T04:52:11.217Z,79.8
2016-02-13T04:53:11.141Z,80.18
2016-02-13T04:54:11.098Z,80.08
2016-02-13T04:55:11.037Z,80.08
2016-02-13T04:56:11.009Z,79.99
2016-02-13T04:57:10.933Z,80.08
2016-02-13T04:58:10.891Z,80.08
2016-02-13T04:59:10.831Z,80.37
2016-02-13T05:00:10.773Z,80.18
2016-02-13T05:01:10.697Z,79.99
2016-02-13T05:02:10.669Z,80.08
2016-02-13T05:03:10.592Z,79.9
2016-02-13T05:04:10.534Z,79.9
2016-02-13T05:05:10.473Z,79.99
2016-02-13T05:06:10.414Z,80.08
2016-02-13T05:07:10.369Z,80.08
2016-02-13T05:08:10.310Z,79.99
2016-02-13T05:09:10.253Z,80.18
2016-02-13T05:10:10.193Z,80.27
2016-02-13T05:11:10.164Z,80.18
2016-02-13T05:12:10.120Z,80.08
2016-02-13T05:13:10.029Z,79.99
2016-02-13T05:14:09.985Z,80.27
2016-02-13T05:15:09.941Z,79.8
2016-02-13T05:16:09.849Z,80.75
2016-02-13T05:17:09.823Z,80.18
2016-02-13T05:18:09.748Z,80.18
2016-02-13T05:19:09.719Z,80.18
2016-02-13T05:20:09.659Z,80.18
2016-02-13T05:21:09.616Z,80.27
2016-02-13T05:22:09.540Z,80.08
2016-02-13T05:23:09.480Z,80.56
2016-02-13T05:24:09.437Z,80.08
2016-02-13T05:25:09.360Z,80.08
2016-02-13T05:26:09.335Z,80.08
2016-02-13T05:27:09.243Z,79.9
2016-02-13T05:28:09.200Z,79.71
2016-02-13T05:29:09.142Z,80.37
2016-02-13T05:30:09.082Z,79.9
2016-02-13T05:31:09.023Z,79.71
2016-02-13T05:32:08.978Z,79.71
2016-02-13T05:33:08.904Z,80.37
2016-02-13T05:34:08.859Z,79.9
2016-02-13T05:35:08.834Z,79.71
2016-02-13T05:36:08.758Z,79.8
2016-02-13T05:37:08.698Z,80.08
2016-02-13T05:38:08.639Z,79.71
2016-02-13T05:39:08.579Z,80.37
2016-02-13T05:40:08.519Z,79.99
2016-02-13T05:41:08.475Z,79.52
2016-02-13T05:42:08.399Z,79.99
2016-02-13T05:43:08.371Z,79.8
2016-02-13T05:44:08.327Z,79.8
2016-02-13T05:45:08.251Z,79.61
2016-02-13T05:46:08.207Z,79.61
2016-02-13T05:47:08.131Z,80.08
2016-02-13T05:48:08.088Z,80.08
2016-02-13T05:49:08.028Z,80.08
2016-02-13T05:50:07.968Z,79.71
2016-02-13T05:51:07.924Z,79.99
2016-02-13T05:52:07.849Z,79.99
2016-02-13T05:53:07.805Z,80.27
2016-02-13T05:54:07.729Z,80.08
2016-02-13T05:55:07.702Z,80.08
2016-02-13T05:56:07.627Z,80.18
2016-02-13T05:57:07.582Z,79.71
2016-02-13T05:58:07.506Z,79.61
2016-02-13T05:59:07.478Z,80.27
2016-02-13T06:00:07.405Z,79.71
2016-02-13T06:01:07.361Z,80.08
2016-02-13T06:02:07.300Z,80.27
2016-02-13T06:03:07.256Z,80.08
2016-02-13T06:04:07.165Z,80.08
2016-02-13T06:05:07.153Z,80.27
2016-02-13T06:06:07.077Z,79.8
2016-02-13T06:07:07.049Z,80.08
2016-02-13T06:08:06.989Z,79.8
2016-02-13T06:09:06.897Z,79.71
2016-02-13T06:10:06.871Z,79.9
2016-02-13T06:11:06.795Z,79.71
2016-02-13T06:12:06.736Z,79.9
2016-02-13T06:13:06.678Z,79.99
2016-02-13T06:14:06.617Z,80.08
2016-02-13T06:15:06.558Z,79.99
2016-02-13T06:16:06.514Z,79.33
2016-02-13T06:17:06.439Z,79.71
2016-02-13T06:18:06.410Z,79.9
2016-02-13T06:19:06.350Z,79.9
2016-02-13T06:20:06.275Z,79.9
2016-02-13T06:21:06.230Z,79.9
2016-02-13T06:22:06.186Z,79.61
2016-02-13T06:23:06.127Z,79.33
2016-02-13T06:24:06.113Z,79.42
2016-02-13T06:25:06.022Z,79.52
2016-02-13T06:26:05.947Z,79.42
2016-02-13T06:27:05.903Z,79.61
2016-02-13T06:28:05.922Z,79.84
2016-02-13T06:29:05.815Z,79.42
2016-02-13T06:30:05.728Z,79.9
2016-02-13T06:31:05.667Z,79.52
2016-02-13T06:32:05.702Z,79.71
2016-02-13T06:33:05.594Z,79.42
2016-02-13T06:34:05.505Z,79.42
2016-02-13T06:35:05.444Z,79.71
2016-02-13T06:36:05.385Z,79.52
2016-02-13T06:37:05.355Z,79.61
2016-02-13T06:38:05.296Z,79.42
2016-02-13T06:39:05.238Z,79.46
2016-02-13T06:40:05.179Z,79.33
2016-02-13T06:41:05.118Z,79.71
2016-02-13T06:42:05.059Z,79.52
2016-02-13T06:43:05.014Z,79.33
2016-02-13T06:44:04.971Z,79.52
2016-02-13T06:45:04.973Z,79.94
2016-02-13T06:46:04.913Z,79.84
2016-02-13T06:47:04.792Z,79.74
2016-02-13T06:48:04.733Z,79.84
2016-02-13T06:49:04.673Z,80.03
2016-02-13T06:50:04.614Z,79.94
2016-02-13T06:51:04.553Z,79.99
2016-02-13T06:52:04.572Z,80.13
2016-02-13T06:53:04.480Z,80.13
2016-02-13T06:54:04.436Z,80.13
2016-02-13T06:55:04.408Z,80.18
2016-02-13T06:56:04.334Z,80.51
2016-02-13T06:57:04.227Z,80.69
2016-02-13T06:58:04.198Z,80.56
2016-02-13T06:59:04.108Z,80.56
2016-02-13T07:00:04.078Z,80.46
2016-02-13T07:01:04.003Z,80.98
2016-02-13T07:02:03.961Z,80.88
2016-02-13T07:03:03.901Z,80.41
2016-02-13T07:04:03.826Z,81.26
2016-02-13T07:05:03.781Z,81.04
2016-02-13T07:06:03.722Z,80.88
2016-02-13T07:07:03.694Z,82.03
2016-02-13T07:08:03.618Z,81.6
2016-02-13T07:09:03.652Z,81.7
2016-02-13T07:10:03.529Z,81.65
2016-02-13T07:11:03.470Z,81.6
2016-02-13T07:12:03.410Z,81.13
2016-02-13T07:13:03.397Z,81.55
2016-02-13T07:14:03.292Z,81.65
2016-02-13T07:15:03.233Z,81.45
2016-02-13T07:16:03.172Z,81.26
2016-02-13T07:17:03.114Z,81.7
2016-02-13T07:18:03.100Z,81.65
2016-02-13T07:19:03.009Z,82.03
2016-02-13T07:20:02.950Z,81.65
2016-02-13T07:21:02.890Z,81.98
2016-02-13T07:22:02.845Z,81.74
2016-02-13T07:23:02.770Z,81.74
2016-02-13T07:24:02.742Z,81.84
2016-02-13T07:25:02.667Z,81.65
2016-02-13T07:26:02.622Z,82.03
2016-02-13T07:27:02.578Z,81.65
2016-02-13T07:28:02.502Z,81.93
2016-02-13T07:29:02.459Z,81.36
2016-02-13T07:30:02.399Z,81.55
2016-02-13T07:31:02.341Z,82.03
2016-02-13T07:32:02.281Z,81.84
2016-02-13T07:33:02.225Z,81.45
2016-02-13T07:34:02.180Z,81.26
2016-02-13T07:35:02.106Z,80.88
2016-02-13T07:36:02.077Z,80.98
2016-02-13T07:37:02.002Z,81.74
2016-02-13T07:38:01.941Z,82.12
2016-02-13T07:39:01.882Z,81.55
2016-02-13T07:40:01.837Z,81.55
2016-02-13T07:41:01.794Z,81.84
2016-02-13T07:42:01.781Z,82.21
2016-02-13T07:43:01.706Z,82.31
2016-02-13T07:44:01.661Z,81.55
2016-02-13T07:45:01.587Z,81.93
2016-02-13T07:46:01.495Z,81.65
2016-02-13T07:47:01.467Z,81.84
2016-02-13T07:48:01.392Z,81.84
2016-02-13T07:49:01.410Z,82.69
2016-02-13T07:50:01.366Z,82.31
2016-02-13T07:51:01.228Z,82.31
2016-02-13T07:52:01.185Z,82.69
2016-02-13T07:53:01.188Z,82.5
2016-02-13T07:54:01.113Z,82.12
2016-02-13T07:55:01.007Z,82.59
2016-02-13T07:56:01.009Z,82.5
2016-02-13T07:57:00.871Z,82.69
2016-02-13T07:58:00.857Z,82.69
2016-02-13T07:59:00.767Z,82.21
2016-02-13T08:00:00.739Z,82.21
2016-02-13T08:01:00.695Z,81.84
2016-02-13T08:02:00.623Z,81.84
2016-02-13T08:03:00.626Z,82.03
2016-02-13T08:04:00.582Z,81.65
2016-02-13T08:05:00.469Z,82.31
2016-02-13T08:06:00.474Z,82.21
2016-02-13T08:07:00.336Z,82.31
2016-02-13T08:08:00.293Z,81.93
2016-02-13T08:09:00.217Z,82.4
2016-02-13T08:10:00.173Z,82.78
2016-02-13T08:11:00.128Z,82.4
2016-02-13T08:12:00.053Z,82.03
2016-02-13T08:13:00.118Z,81.93
2016-02-13T08:13:59.965Z,82.4
2016-02-13T08:14:59.904Z,82.21
2016-02-13T08:15:59.892Z,82.59
2016-02-13T08:16:59.784Z,81.93
2016-02-13T08:17:59.742Z,82.12
2016-02-13T08:18:59.683Z,81.36
2016-02-13T08:19:59.639Z,81.55
2016-02-13T08:20:59.564Z,81.93
2016-02-13T08:21:59.583Z,81.59
2016-02-13T08:22:59.444Z,82.4
2016-02-13T08:23:59.416Z,82.5
2016-02-13T08:24:59.341Z,81.87
2016-02-13T08:25:59.312Z,81.87
2016-02-13T08:26:59.239Z,81.93
2016-02-13T08:27:59.210Z,81.97
2016-02-13T08:28:59.121Z,81.87
2016-02-13T08:29:59.093Z,81.87
2016-02-13T08:30:59.019Z,81.68
2016-02-13T08:31:58.944Z,81.4
2016-02-13T08:32:58.915Z,81.3
2016-02-13T08:33:58.839Z,81.49
2016-02-13T08:34:58.813Z,81.4
2016-02-13T08:35:58.750Z,81.68
2016-02-13T08:36:58.680Z,81.68
2016-02-13T08:37:58.636Z,81.68
2016-02-13T08:38:58.560Z,81.97
2016-02-13T08:39:58.500Z,81.49
2016-02-13T08:40:58.440Z,81.59
2016-02-13T08:41:58.428Z,81.02
2016-02-13T08:42:58.415Z,81.02
2016-02-13T08:43:58.264Z,80.83
2016-02-13T08:44:58.297Z,80.64
2016-02-13T08:45:58.175Z,80.74
2016-02-13T08:46:58.148Z,81.21
2016-02-13T08:47:58.071Z,80.74
2016-02-13T08:48:58.090Z,80.74
2016-02-13T08:49:58.093Z,80.64
2016-02-13T08:50:57.892Z,80.45
2016-02-13T08:51:57.864Z,80.93
2016-02-13T08:52:57.788Z,80.93
2016-02-13T08:53:57.759Z,80.83
2016-02-13T08:54:57.684Z,80.26
2016-02-13T08:55:57.658Z,80.16
2016-02-13T08:56:57.597Z,80.16
2016-02-13T08:57:57.522Z,80.35
2016-02-13T08:58:57.477Z,80.55
2016-02-13T08:59:57.403Z,80.26
2016-02-13T09:00:57.343Z,80.45
2016-02-13T09:01:56.565Z,80.55
2016-02-13T09:02:57.226Z,80.64
2016-02-13T09:03:57.200Z,80.64
2016-02-13T09:04:57.140Z,80.45
2016-02-13T09:05:57.127Z,80.26
2016-02-13T09:06:57.020Z,80.35
2016-02-13T09:07:56.960Z,80.35
2016-02-13T09:08:56.931Z,80.64
2016-02-13T09:09:56.856Z,80.16
2016-02-13T09:10:56.812Z,80.16
2016-02-13T09:11:56.753Z,80.74
2016-02-13T09:12:56.693Z,80.64
2016-02-13T09:13:56.665Z,80.64
2016-02-13T09:14:56.604Z,80.83
2016-02-13T09:15:56.624Z,80.74
2016-02-13T09:16:56.485Z,80.35
2016-02-13T09:17:56.410Z,80.74
2016-02-13T09:18:56.350Z,80.64
2016-02-13T09:19:56.322Z,80.26
2016-02-13T09:20:56.246Z,80.26
2016-02-13T09:21:56.203Z,80.64
2016-02-13T09:22:56.159Z,80.74
2016-02-13T09:23:56.129Z,81.02
2016-02-13T09:24:56.023Z,80.74
2016-02-13T09:25:56.025Z,80.93
2016-02-13T09:26:55.919Z,81.02
2016-02-13T09:27:55.859Z,81.12
2016-02-13T09:28:55.815Z,81.21
2016-02-13T09:29:55.755Z,81.4
2016-02-13T09:30:55.728Z,81.4
2016-02-13T09:31:55.651Z,80.93
2016-02-13T09:32:55.595Z,80.93
2016-02-13T09:33:55.536Z,80.45
2016-02-13T09:34:55.492Z,80.16
2016-02-13T09:35:55.432Z,80.07
2016-02-13T09:36:55.372Z,80.16
2016-02-13T09:37:55.329Z,80.35
2016-02-13T09:38:55.299Z,79.73
2016-02-13T09:39:55.240Z,80.21
2016-02-13T09:40:55.180Z,79.83
2016-02-13T09:41:55.089Z,79.44
2016-02-13T09:42:55.045Z,79.63
2016-02-13T09:43:55.063Z,79.63
2016-02-13T09:44:55.003Z,80.11
2016-02-13T09:45:54.882Z,79.83
2016-02-13T09:46:54.884Z,78.97
2016-02-13T09:47:54.795Z,78.69
2016-02-13T09:48:54.719Z,78.69
2016-02-13T09:49:54.659Z,78.5
2016-02-13T09:50:54.615Z,78.59
2016-02-13T09:51:54.665Z,78.5
2016-02-13T09:52:54.513Z,78.88
2016-02-13T09:53:54.499Z,78.69
2016-02-13T09:54:54.393Z,78.88
2016-02-13T09:55:54.348Z,78.3
2016-02-13T09:56:54.304Z,77.92
2016-02-13T09:57:54.244Z,77.64
2016-02-13T09:58:54.169Z,77.64
2016-02-13T09:59:54.125Z,78.21
2016-02-13T10:00:54.082Z,78.16
2016-02-13T10:01:53.855Z,77.64
2016-02-13T10:02:53.968Z,77.87
2016-02-13T10:03:53.908Z,77.45
2016-02-13T10:04:53.848Z,77.2
2016-02-13T10:05:53.804Z,77.3
2016-02-13T10:06:53.743Z,77.01
2016-02-13T10:07:53.701Z,77.07
2016-02-13T10:08:53.625Z,77.2
2016-02-13T10:09:53.582Z,77.26
2016-02-13T10:10:53.538Z,76.78
2016-02-13T10:11:53.571Z,77.11
2016-02-13T10:12:53.449Z,76.82
2016-02-13T10:13:53.373Z,77.2
2016-02-13T10:14:53.298Z,77.49
2016-02-13T10:15:53.269Z,77.39
2016-02-13T10:16:53.242Z,77.11
2016-02-13T10:17:53.229Z,77.01
2016-02-13T10:18:53.107Z,76.82
2016-02-13T10:19:53.047Z,77.3
2016-02-13T10:20:52.988Z,77.3
2016-02-13T10:21:52.911Z,77.11
2016-02-13T10:22:52.882Z,77.68
2016-02-13T10:23:52.823Z,77.2
2016-02-13T10:24:52.748Z,76.92
2016-02-13T10:25:52.705Z,77.2
2016-02-13T10:26:52.644Z,77.11
2016-02-13T10:27:52.617Z,76.73
2016-02-13T10:28:52.556Z,76.63
2016-02-13T10:29:52.512Z,76.73
2016-02-13T10:30:52.468Z,76.44
2016-02-13T10:31:52.392Z,76.54
2016-02-13T10:32:52.335Z,76.82
2016-02-13T10:33:52.274Z,76.92
2016-02-13T10:34:52.215Z,76.44
2016-02-13T10:35:52.155Z,76.25
2016-02-13T10:36:52.127Z,76.16
2016-02-13T10:37:52.035Z,76.44
2016-02-13T10:38:52.007Z,76.92
2016-02-13T10:39:51.962Z,77.2
2016-02-13T10:40:51.887Z,76.73
2016-02-13T10:41:51.859Z,76.63
2016-02-13T10:42:51.798Z,76.54
2016-02-13T10:43:51.742Z,75.96
2016-02-13T10:44:51.697Z,75.78
2016-02-13T10:45:51.622Z,76.06
2016-02-13T10:46:51.672Z,75.59
2016-02-13T10:47:51.518Z,75.49
2016-02-13T10:48:51.458Z,75.3
2016-02-13T10:49:51.430Z,75.02
2016-02-13T10:50:51.340Z,75.21
2016-02-13T10:51:51.327Z,75.4
2016-02-13T10:52:51.237Z,75.3
2016-02-13T10:53:51.207Z,75.3
2016-02-13T10:54:51.149Z,74.87
2016-02-13T10:55:51.073Z,74.48
2016-02-13T10:56:51.029Z,74.48
2016-02-13T10:57:51.094Z,74.01
2016-02-13T10:58:50.910Z,73.25
2016-02-13T10:59:51.022Z,72.14
2016-02-13T11:00:50.837Z,71.76
2016-02-13T11:01:50.776Z,71.03
2016-02-13T11:02:50.736Z,70.08
2016-02-13T11:03:50.678Z,68.98
2016-02-13T11:04:50.664Z,66.53
2016-02-13T11:05:50.574Z,64.94
2016-02-13T11:06:50.545Z,64.02
2016-02-13T11:07:50.485Z,62.05
2016-02-13T11:08:50.442Z,60.46
2016-02-13T11:09:50.397Z,59.05
2016-02-13T11:10:50.306Z,58.67
2016-02-13T11:11:50.261Z,57.93
2016-02-13T11:12:50.266Z,57.84
2016-02-13T11:13:50.143Z,57.2
2016-02-13T11:14:50.115Z,56.05
2016-02-13T11:15:50.055Z,55.12
2016-02-13T11:16:50.074Z,53.71
2016-02-13T11:17:49.951Z,52.09
2016-02-13T11:18:49.906Z,51.25
2016-02-13T11:19:49.878Z,50.32
2016-02-13T11:20:49.850Z,49.74
2016-02-13T11:21:49.777Z,48.9
2016-02-13T11:22:49.747Z,48.74
2016-02-13T11:23:49.688Z,48.25
2016-02-13T11:24:49.628Z,47.13
2016-02-13T11:25:49.568Z,45.98
2016-02-13T11:26:49.524Z,45.9
2016-02-13T11:27:49.449Z,46.07
2016-02-13T11:28:49.435Z,45.88
2016-02-13T11:29:49.439Z,46.07
2016-02-13T11:30:49.380Z,45.88
2016-02-13T11:31:49.288Z,45.98
2016-02-13T11:32:49.556Z,46.14
2016-02-13T11:33:49.202Z,46.62
2016-02-13T11:34:49.173Z,47.37
2016-02-13T11:35:49.160Z,48.11
2016-02-13T11:36:49.069Z,48.47
2016-02-13T11:37:49.025Z,49.05
2016-02-13T11:38:49.029Z,49.5
2016-02-13T11:39:48.891Z,50.56
2016-02-13T11:40:48.862Z,51.39
2016-02-13T11:41:48.802Z,51.97
2016-02-13T11:42:48.790Z,51.97
2016-02-13T11:43:48.714Z,51.68
2016-02-13T11:44:48.702Z,51.77
2016-02-13T11:45:47.861Z,52.06
2016-02-13T11:46:48.535Z,52.32
2016-02-13T11:47:48.508Z,52.89
2016-02-13T11:48:48.448Z,53.73
2016-02-13T11:49:48.451Z,54.21
2016-02-13T11:50:48.391Z,54.47
2016-02-13T11:51:48.300Z,54.66
2016-02-13T11:52:48.256Z,55.13
2016-02-13T11:53:48.180Z,55.52
2016-02-13T11:54:48.183Z,55.71
2016-02-13T11:55:48.092Z,55.49
2016-02-13T11:56:48.034Z,55.2
2016-02-13T11:57:48.005Z,54.91
2016-02-13T11:58:47.946Z,55.13
2016-02-13T11:59:47.886Z,55.2
2016-02-13T12:00:48.171Z,55.2
2016-02-13T12:01:47.830Z,55.01
2016-02-13T12:02:47.754Z,54.91
2016-02-13T12:03:47.712Z,55.11
2016-02-13T12:04:47.652Z,55.08
2016-02-13T12:05:47.612Z,55.27
2016-02-13T12:06:47.537Z,55.55
2016-02-13T12:07:47.493Z,56.41
2016-02-13T12:08:47.448Z,57.28
2016-02-13T12:09:47.389Z,57.37
2016-02-13T12:10:47.329Z,57.82
2016-02-13T12:11:47.300Z,59.16
2016-02-13T12:12:47.319Z,59.25
2016-02-13T12:13:47.182Z,59.34
2016-02-13T12:14:47.137Z,59.34
2016-02-13T12:15:47.078Z,59.25
2016-02-13T12:16:47.051Z,59.73
2016-02-13T12:17:46.991Z,60.02
2016-02-13T12:18:46.947Z,60.02
2016-02-13T12:19:46.872Z,61.16
2016-02-13T12:20:46.858Z,61.16
2016-02-13T12:21:46.783Z,60.97
2016-02-13T12:22:46.772Z,60.87
2016-02-13T12:23:46.664Z,61.13
2016-02-13T12:24:46.636Z,61.13
2016-02-13T12:25:46.605Z,61.22
2016-02-13T12:26:46.576Z,61.13
2016-02-13T12:27:46.500Z,61.13
2016-02-13T12:28:46.444Z,60.94
2016-02-13T12:29:46.353Z,60.94
2016-02-13T12:30:46.339Z,61.32
2016-02-13T12:31:46.265Z,61.22
2016-02-13T12:32:46.285Z,61.07
2016-02-13T12:33:46.193Z,61.07
2016-02-13T12:34:46.102Z,60.97
2016-02-13T12:35:46.074Z,60.97
2016-02-13T12:36:46.030Z,60.87
2016-02-13T12:37:45.955Z,60.68
2016-02-13T12:38:45.926Z,59.34
2016-02-13T12:39:45.945Z,60.3
2016-02-13T12:40:45.868Z,60.49
2016-02-13T12:41:45.793Z,60.21
2016-02-13T12:42:45.767Z,59.63
2016-02-13T12:43:45.675Z,59.73
2016-02-13T12:44:45.617Z,58.77
2016-02-13T12:45:45.620Z,58.55
2016-02-13T12:46:45.575Z,57.98
2016-02-13T12:47:45.467Z,57.98
2016-02-13T12:48:45.471Z,57.98
2016-02-13T12:49:45.365Z,58.17
2016-02-13T12:50:45.275Z,58.46
2016-02-13T12:51:45.280Z,57.89
2016-02-13T12:52:45.143Z,57.7
2016-02-13T12:53:45.092Z,57.79
2016-02-13T12:54:45.027Z,57.89